Time;durP1;ratioP1;P1;durP2;ratioP2;P2;SDS_P1;SDS_P2;PMS_P1;PMS_P2;Temp;Humidity;BMP_temperature;BMP_pressure;BME280_temperature;BME280_humidity;BME280_pressure;Samples;Min_cycle;Max_cycle;Signal;HPM_P1;HPM_P2
2023/07/03 00:00:45;;;;;;;18.20;3.90;;;;;;;;;;4799763;29;21236;-88
2023/07/03 00:03:15;;;;;;;24.13;4.28;;;;;;;;;;4782979;29;20041;-87
2023/07/03 00:06:03;;;;;;;22.20;4.43;;;;;;;;;;4801027;29;20056;-89
2023/07/03 00:08:29;;;;;;;19.88;4.10;;;;;;;;;;4811442;29;20041;-88
2023/07/03 00:11:02;;;;;;;16.27;3.40;;;;;;;;;;4804136;29;20128;-88
2023/07/03 00:13:28;;;;;;;17.65;4.38;;;;;;;;;;4799055;29;20821;-88
2023/07/03 00:15:58;;;;;;;24.70;4.85;;;;;;;;;;4824644;29;20035;-89
2023/07/03 00:18:24;;;;;;;11.10;3.63;;;;;;;;;;4802297;29;20038;-88
2023/07/03 00:21:00;;;;;;;16.10;4.97;;;;;;;;;;4797633;29;20058;-88
2023/07/03 00:23:33;;;;;;;18.70;4.85;;;;;;;;;;4784382;29;20429;-89
2023/07/03 00:25:59;;;;;;;19.88;4.13;;;;;;;;;;4798660;29;20069;-89
2023/07/03 00:28:25;;;;;;;12.38;4.43;;;;;;;;;;4799163;29;20036;-90
2023/07/03 00:30:52;;;;;;;14.32;4.30;;;;;;;;;;4782767;29;20103;-90
2023/07/03 00:33:18;;;;;;;20.17;4.65;;;;;;;;;;4790302;29;20056;-90
2023/07/03 00:35:57;;;;;;;20.25;4.60;;;;;;;;;;4800387;29;20566;-87
2023/07/03 00:38:23;;;;;;;17.67;4.38;;;;;;;;;;4799148;29;20386;-88
2023/07/03 00:40:49;;;;;;;16.15;3.85;;;;;;;;;;4801013;29;20078;-89
2023/07/03 00:43:22;;;;;;;14.68;4.05;;;;;;;;;;4784660;29;21181;-89
2023/07/03 00:45:48;;;;;;;12.55;4.47;;;;;;;;;;4801593;29;20109;-90
2023/07/03 00:48:15;;;;;;;13.77;3.05;;;;;;;;;;4783995;29;20720;-88
2023/07/03 00:50:41;;;;;;;13.02;3.97;;;;;;;;;;4793227;29;20034;-90
2023/07/03 00:53:09;;;;;;;15.80;4.05;;;;;;;;;;4780796;29;20141;-90
2023/07/03 00:55:37;;;;;;;11.88;4.32;;;;;;;;;;4814129;29;20037;-90
2023/07/03 00:58:03;;;;;;;15.25;4.00;;;;;;;;;;4798764;29;20407;-89
2023/07/03 01:00:33;;;;;;;21.25;5.45;;;;;;;;;;4778270;29;20133;-90
2023/07/03 01:03:09;;;;;;;16.70;4.15;;;;;;;;;;4798532;29;20125;-90
2023/07/03 01:05:40;;;;;;;;;;;;;;;;;;4815547;29;20034;-90
2023/07/03 01:08:06;;;;;;;12.40;3.75;;;;;;;;;;4795327;29;20340;-90
2023/07/03 01:10:36;;;;;;;11.52;3.88;;;;;;;;;;4804774;29;20038;-90
2023/07/03 01:13:04;;;;;;;28.17;3.50;;;;;;;;;;4785270;29;20595;-91
2023/07/03 01:15:34;;;;;;;10.23;3.13;;;;;;;;;;4817074;29;20582;-90
2023/07/03 01:18:02;;;;;;;10.32;3.35;;;;;;;;;;4799989;29;20737;-90
2023/07/03 01:20:31;;;;;;;14.52;3.65;;;;;;;;;;4798104;29;20102;-89
2023/07/03 01:23:10;;;;;;;16.25;4.03;;;;;;;;;;4795289;29;20260;-89
2023/07/03 01:25:37;;;;;;;18.48;3.42;;;;;;;;;;4798073;29;20113;-88
2023/07/03 01:28:04;;;;;;;13.32;3.40;;;;;;;;;;4800326;29;20034;-89
2023/07/03 01:30:31;;;;;;;15.25;3.95;;;;;;;;;;4795442;29;20139;-86
2023/07/03 01:32:58;;;;;;;21.05;3.65;;;;;;;;;;4798374;29;20026;-87
2023/07/03 01:35:24;;;;;;;12.55;3.22;;;;;;;;;;4779385;29;20043;-87
2023/07/03 01:37:52;;;;;;;14.02;4.00;;;;;;;;;;4785069;29;20517;-88
2023/07/03 01:40:20;;;;;;;11.55;4.03;;;;;;;;;;4798758;29;20526;-88
2023/07/03 01:42:50;;;;;;;19.73;4.75;;;;;;;;;;4800593;29;20491;-87
2023/07/03 01:45:17;;;;;;;14.00;3.42;;;;;;;;;;4785526;29;20034;-88
2023/07/03 01:47:43;;;;;;;15.15;3.67;;;;;;;;;;4790575;29;21099;-88
2023/07/03 01:50:14;;;;;;;17.55;3.60;;;;;;;;;;4791762;29;20035;-89
2023/07/03 01:52:44;;;;;;;15.40;3.65;;;;;;;;;;4793308;29;20031;-87
2023/07/03 01:55:22;;;;;;;13.18;3.20;;;;;;;;;;4798545;29;20053;-88
2023/07/03 01:57:49;;;;;;;15.68;3.22;;;;;;;;;;4795388;29;20660;-87
2023/07/03 02:00:21;;;;;;;23.52;4.65;;;;;;;;;;4796921;29;20034;-89
2023/07/03 02:02:49;;;;;;;18.42;4.45;;;;;;;;;;4797023;29;20415;-88
2023/07/03 02:05:23;;;;;;;11.90;3.63;;;;;;;;;;4798435;29;20054;-89
2023/07/03 02:07:50;;;;;;;7.70;3.25;;;;;;;;;;4800860;29;20034;-87
2023/07/03 02:10:16;;;;;;;9.75;2.78;;;;;;;;;;4801399;29;20045;-88
2023/07/03 02:12:46;;;;;;;15.75;3.40;;;;;;;;;;4812539;29;20254;-88
2023/07/03 02:15:19;;;;;;;12.90;3.20;;;;;;;;;;4808660;29;20049;-88
2023/07/03 02:17:53;;;;;;;17.60;3.72;;;;;;;;;;4795071;29;20035;-88
2023/07/03 02:20:19;;;;;;;18.25;3.70;;;;;;;;;;4792820;29;20496;-88
2023/07/03 02:22:48;;;;;;;11.65;3.38;;;;;;;;;;4800101;29;20119;-88
2023/07/03 02:25:15;;;;;;;12.93;2.80;;;;;;;;;;4783691;29;20380;-89
2023/07/03 02:27:45;;;;;;;16.50;2.80;;;;;;;;;;4783238;29;20046;-88
2023/07/03 02:30:12;;;;;;;15.20;3.05;;;;;;;;;;4783512;29;20038;-88
2023/07/03 02:32:39;;;;;;;13.45;2.78;;;;;;;;;;4792685;29;20122;-88
2023/07/03 02:35:05;;;;;;;11.13;2.75;;;;;;;;;;4798663;29;20038;-88
2023/07/03 02:37:39;;;;;;;10.35;3.30;;;;;;;;;;4791850;29;20148;-88
2023/07/03 02:40:10;;;;;;;12.15;2.80;;;;;;;;;;4784710;29;20259;-88
2023/07/03 02:42:36;;;;;;;9.32;2.85;;;;;;;;;;4812199;29;20043;-88
2023/07/03 02:45:03;;;;;;;7.65;2.60;;;;;;;;;;4781483;29;20266;-88
2023/07/03 02:47:36;;;;;;;15.70;2.33;;;;;;;;;;4783338;29;20129;-88
2023/07/03 02:50:07;;;;;;;13.32;2.65;;;;;;;;;;4809114;29;20135;-89
2023/07/03 02:52:33;;;;;;;10.07;2.30;;;;;;;;;;4795813;29;20449;-88
2023/07/03 02:54:59;;;;;;;14.32;2.30;;;;;;;;;;4798032;29;20058;-87
2023/07/03 02:57:27;;;;;;;9.25;2.17;;;;;;;;;;4816994;29;20121;-88
2023/07/03 02:59:53;;;;;;;19.20;2.10;;;;;;;;;;4784584;29;20083;-88
2023/07/03 03:02:19;;;;;;;9.90;2.40;;;;;;;;;;4797147;29;20118;-88
2023/07/03 03:04:47;;;;;;;9.82;2.10;;;;;;;;;;4794809;29;20045;-88
2023/07/03 03:07:14;;;;;;;11.70;2.83;;;;;;;;;;4806903;29;20389;-87
2023/07/03 03:09:43;;;;;;;16.20;2.67;;;;;;;;;;4796534;29;20042;-87
2023/07/03 03:12:09;;;;;;;17.73;2.55;;;;;;;;;;4797650;29;20698;-87
2023/07/03 03:14:35;;;;;;;13.07;3.95;;;;;;;;;;4796644;29;20046;-87
2023/07/03 03:17:01;;;;;;;13.15;2.60;;;;;;;;;;4794648;29;20049;-88
2023/07/03 03:19:29;;;;;;;13.20;3.03;;;;;;;;;;4784963;29;20041;-88
2023/07/03 03:21:55;;;;;;;9.93;2.15;;;;;;;;;;4786883;29;20051;-89
2023/07/03 03:24:21;;;;;;;12.13;2.83;;;;;;;;;;4773448;29;20049;-88
2023/07/03 03:26:48;;;;;;;7.20;2.00;;;;;;;;;;4786142;29;20042;-88
2023/07/03 03:29:14;;;;;;;11.30;2.60;;;;;;;;;;4783632;29;20035;-88
2023/07/03 03:31:40;;;;;;;9.80;2.00;;;;;;;;;;4785162;29;20400;-88
2023/07/03 03:34:06;;;;;;;12.73;2.45;;;;;;;;;;4797054;29;20150;-88
2023/07/03 03:36:33;;;;;;;15.07;2.40;;;;;;;;;;4783067;29;20088;-88
2023/07/03 03:39:00;;;;;;;13.15;2.92;;;;;;;;;;4798043;29;20054;-88
2023/07/03 03:41:26;;;;;;;12.02;2.95;;;;;;;;;;4781548;29;20058;-88
2023/07/03 03:43:52;;;;;;;11.00;2.10;;;;;;;;;;4789533;29;20086;-89
2023/07/03 03:46:18;;;;;;;22.98;2.75;;;;;;;;;;4784412;29;20056;-89
2023/07/03 03:48:45;;;;;;;14.10;2.03;;;;;;;;;;4782750;29;20100;-90
2023/07/03 03:51:11;;;;;;;12.27;2.65;;;;;;;;;;4812672;29;20031;-89
2023/07/03 03:53:37;;;;;;;2.80;1.50;;;;;;;;;;4786943;29;20425;-88
2023/07/03 03:56:03;;;;;;;10.25;2.20;;;;;;;;;;4811824;29;20038;-89
2023/07/03 03:58:36;;;;;;;8.85;2.35;;;;;;;;;;4785439;29;20046;-88
2023/07/03 04:01:02;;;;;;;8.55;2.22;;;;;;;;;;4797674;29;20065;-89
2023/07/03 04:03:28;;;;;;;12.80;2.17;;;;;;;;;;4801353;29;20042;-89
2023/07/03 04:05:54;;;;;;;10.20;1.75;;;;;;;;;;4777091;29;20049;-88
2023/07/03 04:08:21;;;;;;;10.43;2.05;;;;;;;;;;4798970;29;20066;-89
2023/07/03 04:10:47;;;;;;;12.25;2.33;;;;;;;;;;4785343;29;20370;-88
2023/07/03 04:13:13;;;;;;;9.35;1.50;;;;;;;;;;4816441;29;20038;-89
2023/07/03 04:15:51;;;;;;;8.50;2.33;;;;;;;;;;4797166;29;20065;-88
2023/07/03 04:18:18;;;;;;;15.55;2.30;;;;;;;;;;4813224;29;20576;-88
2023/07/03 04:20:45;;;;;;;18.60;3.22;;;;;;;;;;4778636;29;20055;-88
2023/07/03 04:23:11;;;;;;;10.10;2.22;;;;;;;;;;4795144;29;20103;-89
2023/07/03 04:25:37;;;;;;;5.32;1.77;;;;;;;;;;4789615;29;20096;-88
2023/07/03 04:28:03;;;;;;;10.63;2.50;;;;;;;;;;4782391;29;20038;-89
2023/07/03 04:30:29;;;;;;;7.88;2.58;;;;;;;;;;4781590;29;20451;-89
2023/07/03 04:32:55;;;;;;;12.85;1.98;;;;;;;;;;4786400;29;20038;-88
2023/07/03 04:38:07;;;;;;;15.25;2.70;;;;;;;;;;4739682;27;8454852;-87
2023/07/03 04:40:33;;;;;;;11.13;2.13;;;;;;;;;;4996534;28;20046;-89
2023/07/03 04:42:59;;;;;;;19.88;2.90;;;;;;;;;;4986006;28;20505;-87
2023/07/03 04:45:35;;;;;;;8.35;1.88;;;;;;;;;;4995734;28;20034;-89
2023/07/03 04:48:01;;;;;;;16.52;3.40;;;;;;;;;;4984848;28;20594;-88
2023/07/03 04:50:27;;;;;;;18.48;5.45;;;;;;;;;;4993854;28;20490;-86
2023/07/03 04:52:53;;;;;;;17.98;2.90;;;;;;;;;;4975910;28;20481;-88
2023/07/03 04:55:21;;;;;;;12.70;3.20;;;;;;;;;;4994642;28;20026;-87
2023/07/03 04:57:47;;;;;;;14.00;2.03;;;;;;;;;;4990866;28;20045;-87
2023/07/03 05:00:27;;;;;;;10.10;2.20;;;;;;;;;;4993647;28;20041;-88
2023/07/03 05:02:58;;;;;;;8.05;1.90;;;;;;;;;;4959878;28;20034;-89
2023/07/03 05:05:25;;;;;;;13.90;2.53;;;;;;;;;;4997936;28;20026;-90
2023/07/03 05:07:51;;;;;;;20.40;3.15;;;;;;;;;;4994448;28;20482;-88
2023/07/03 05:10:24;;;;;;;8.65;2.05;;;;;;;;;;4995843;28;20017;-93
2023/07/03 05:12:51;;;;;;;13.48;2.60;;;;;;;;;;4987536;28;20434;-87
2023/07/03 05:15:17;;;;;;;9.70;1.60;;;;;;;;;;4977663;28;20429;-85
2023/07/03 05:17:56;;;;;;;6.20;2.05;;;;;;;;;;5002188;28;20030;-86
2023/07/03 05:20:22;;;;;;;11.70;2.47;;;;;;;;;;5006311;28;20657;-87
2023/07/03 05:22:55;;;;;;;11.57;2.60;;;;;;;;;;4976638;28;20057;-87
2023/07/03 05:25:21;;;;;;;6.43;1.63;;;;;;;;;;4975867;28;20022;-87
2023/07/03 05:27:49;;;;;;;8.55;2.30;;;;;;;;;;4977059;28;20463;-90
2023/07/03 05:30:16;;;;;;;11.13;2.30;;;;;;;;;;4983714;28;20037;-86
2023/07/03 05:32:51;;;;;;;10.77;2.30;;;;;;;;;;5000963;28;20048;-86
2023/07/03 05:35:18;;;;;;;3.65;0.77;;;;;;;;;;4977649;28;20686;-86
2023/07/03 05:37:44;;;;;;;10.13;1.88;;;;;;;;;;4961473;28;21400;-86
2023/07/03 05:40:10;;;;;;;10.73;1.65;;;;;;;;;;4957160;28;20477;-86
2023/07/03 05:42:38;;;;;;;11.30;2.05;;;;;;;;;;4975388;28;20033;-85
2023/07/03 05:45:26;;;;;;;17.05;2.15;;;;;;;;;;4987123;28;20034;-86
2023/07/03 05:48:04;;;;;;;10.10;2.70;;;;;;;;;;4923382;29;20075;-86
2023/07/03 05:50:34;;;;;;;13.48;3.42;;;;;;;;;;4904593;29;20088;-85
2023/07/03 05:53:04;;;;;;;7.95;1.88;;;;;;;;;;4916244;29;20064;-86
2023/07/03 05:55:56;;;;;;;12.82;2.42;;;;;;;;;;4905305;29;20048;-85
2023/07/03 05:58:23;;;;;;;9.93;1.80;;;;;;;;;;4918146;28;20043;-86
2023/07/03 06:00:51;;;;;;;6.65;1.70;;;;;;;;;;4978513;28;20046;-86
2023/07/03 06:03:18;;;;;;;15.40;2.10;;;;;;;;;;4975448;28;20026;-85
2023/07/03 06:05:48;;;;;;;12.82;2.00;;;;;;;;;;4971885;28;20137;-85
2023/07/03 06:08:22;;;;;;;5.28;1.67;;;;;;;;;;4968129;28;20545;-85
2023/07/03 06:10:53;;;;;;;15.20;1.90;;;;;;;;;;4973822;28;20034;-85
2023/07/03 06:13:19;;;;;;;7.20;1.95;;;;;;;;;;4954333;28;20101;-86
2023/07/03 06:15:48;;;;;;;10.40;2.65;;;;;;;;;;4956348;28;20137;-86
2023/07/03 06:18:52;;;;;;;8.18;1.77;;;;;;;;;;4974741;28;20042;-86
2023/07/03 06:21:18;;;;;;;14.57;3.13;;;;;;;;;;4958281;28;20034;-85
2023/07/03 06:23:45;;;;;;;12.13;2.05;;;;;;;;;;4952278;28;20117;-86
2023/07/03 06:26:11;;;;;;;10.45;2.30;;;;;;;;;;4966396;28;20058;-86
2023/07/03 06:28:37;;;;;;;8.30;2.67;;;;;;;;;;4957386;28;20593;-85
2023/07/03 06:31:03;;;;;;;14.75;2.30;;;;;;;;;;4968365;28;20094;-86
2023/07/03 06:33:30;;;;;;;11.82;2.08;;;;;;;;;;4953764;28;20034;-86
2023/07/03 06:35:56;;;;;;;12.93;2.17;;;;;;;;;;4955795;28;20046;-85
2023/07/03 06:38:32;;;;;;;4.85;1.60;;;;;;;;;;4963122;28;20058;-85
2023/07/03 06:40:59;;;;;;;9.82;1.90;;;;;;;;;;4969103;28;20031;-86
2023/07/03 06:46:15;;;;;;;11.52;2.83;;;;;;;;;;4969314;28;20026;-85
2023/07/03 06:48:56;;;;;;;10.23;2.05;;;;;;;;;;4957762;28;20117;-86
2023/07/03 06:51:30;;;;;;;8.45;2.63;;;;;;;;;;4972155;28;20030;-86
2023/07/03 06:53:56;;;;;;;13.70;2.33;;;;;;;;;;4972304;28;20136;-85
2023/07/03 06:56:23;;;;;;;4.65;1.60;;;;;;;;;;4955022;28;20061;-86
2023/07/03 06:58:53;;;;;;;7.97;2.42;;;;;;;;;;4970818;28;20018;-86
2023/07/03 07:01:22;;;;;;;13.35;2.17;;;;;;;;;;4967554;28;20142;-85
2023/07/03 07:03:52;;;;;;;16.88;2.42;;;;;;;;;;4973028;28;20022;-85
2023/07/03 07:06:21;;;;;;;10.30;2.25;;;;;;;;;;4987136;28;20038;-86
2023/07/03 07:08:56;;;;;;;7.95;2.08;;;;;;;;;;4977044;28;20406;-85
2023/07/03 07:11:33;;;;;;;17.17;2.10;;;;;;;;;;4958661;28;20042;-85
2023/07/03 07:14:14;;;;;;;13.32;2.30;;;;;;;;;;4980525;28;20027;-86
2023/07/03 07:16:47;;;;;;;10.13;1.92;;;;;;;;;;4964922;28;20049;-86
2023/07/03 07:19:16;;;;;;;14.50;2.20;;;;;;;;;;4963644;28;20037;-85
2023/07/03 07:21:45;;;;;;;6.53;1.67;;;;;;;;;;4979379;28;20050;-86
2023/07/03 07:24:13;;;;;;;9.27;3.15;;;;;;;;;;4951580;28;20039;-85
2023/07/03 07:26:40;;;;;;;6.78;1.90;;;;;;;;;;4965985;28;20030;-85
2023/07/03 07:29:40;;;;;;;11.70;2.97;;;;;;;;;;4966408;28;20031;-85
2023/07/03 07:32:15;;;;;;;10.15;2.20;;;;;;;;;;4965797;28;20058;-85
2023/07/03 07:34:41;;;;;;;5.88;2.03;;;;;;;;;;4966477;28;20026;-85
2023/07/03 07:37:13;;;;;;;7.75;2.22;;;;;;;;;;4965989;28;20058;-85
2023/07/03 07:40:04;;;;;;;13.52;1.92;;;;;;;;;;4960461;28;20039;-85
2023/07/03 07:42:31;;;;;;;18.35;1.70;;;;;;;;;;4965370;28;20030;-85
2023/07/03 07:44:57;;;;;;;9.48;1.75;;;;;;;;;;4947720;28;20870;-85
2023/07/03 07:47:23;;;;;;;6.03;1.48;;;;;;;;;;4941686;28;20112;-85
2023/07/03 07:52:46;;;;;;;5.82;1.48;;;;;;;;;;4970924;28;20053;-86
2023/07/03 07:55:16;;;;;;;10.18;2.38;;;;;;;;;;4952794;28;20125;-85
2023/07/03 07:57:45;;;;;;;7.80;1.83;;;;;;;;;;4955176;28;20043;-85
2023/07/03 08:00:21;;;;;;;11.25;1.73;;;;;;;;;;4956534;28;20546;-85
2023/07/03 08:02:50;;;;;;;5.97;1.98;;;;;;;;;;4963911;28;20530;-86
2023/07/03 08:05:17;;;;;;;7.60;1.73;;;;;;;;;;4956105;28;20548;-85
2023/07/03 08:07:55;;;;;;;7.28;1.77;;;;;;;;;;4949102;28;20364;-85
2023/07/03 08:10:24;;;;;;;13.32;1.52;;;;;;;;;;4966692;28;20042;-86
2023/07/03 08:12:52;;;;;;;8.73;2.15;;;;;;;;;;4949673;28;20046;-86
2023/07/03 08:15:29;;;;;;;7.45;1.52;;;;;;;;;;4962967;28;20065;-86
2023/07/03 08:17:55;;;;;;;15.10;2.13;;;;;;;;;;4974076;28;20025;-85
2023/07/03 08:20:22;;;;;;;11.88;2.20;;;;;;;;;;4940633;28;20045;-86
2023/07/03 08:22:48;;;;;;;4.90;1.52;;;;;;;;;;4968497;28;20033;-86
2023/07/03 08:25:14;;;;;;;4.05;1.55;;;;;;;;;;4962848;23;20042;-85
2023/07/03 08:27:46;;;;;;;7.93;1.27;;;;;;;;;;4959828;28;20030;-86
2023/07/03 08:30:14;;;;;;;8.60;1.52;;;;;;;;;;4990907;28;20553;-86
2023/07/03 08:32:53;;;;;;;;;;;;;;;;;;;;;
2023/07/03 08:35:20;;;;;;;6.90;1.38;;;;;;;;;;4979939;28;20349;-86
2023/07/03 08:37:47;;;;;;;4.47;1.90;;;;;;;;;;4963115;28;20118;-85
2023/07/03 08:40:18;;;;;;;3.78;1.00;;;;;;;;;;4972357;28;20027;-86
2023/07/03 08:43:14;;;;;;;4.55;1.48;;;;;;;;;;4978432;28;20030;-86
2023/07/03 08:45:44;;;;;;;3.85;1.00;;;;;;;;;;4977452;28;20415;-86
2023/07/03 08:51:08;;;;;;;2.42;1.35;;;;;;;;;;4970825;28;20035;-86
2023/07/03 08:53:53;;;;;;;5.53;1.25;;;;;;;;;;4964889;28;20031;-86
2023/07/03 08:56:39;;;;;;;5.20;1.38;;;;;;;;;;4996514;28;20054;-86
2023/07/03 08:59:09;;;;;;;6.28;2.05;;;;;;;;;;4995935;28;20023;-85
2023/07/03 09:01:42;;;;;;;3.05;1.40;;;;;;;;;;4958227;28;20057;-86
2023/07/03 09:04:15;;;;;;;5.45;1.35;;;;;;;;;;4978310;28;20058;-86
2023/07/03 09:06:54;;;;;;;7.95;1.35;;;;;;;;;;4988433;28;20065;-86
2023/07/03 09:09:56;;;;;;;2.75;1.30;;;;;;;;;;4985199;28;20030;-86
2023/07/03 09:12:25;;;;;;;5.00;2.20;;;;;;;;;;4991761;28;20046;-85
2023/07/03 09:15:04;;;;;;;3.65;1.27;;;;;;;;;;4988598;28;20040;-86
2023/07/03 09:17:31;;;;;;;7.30;1.75;;;;;;;;;;4986907;28;20460;-85
2023/07/03 09:20:01;;;;;;;4.20;0.73;;;;;;;;;;4952376;28;20018;-86
2023/07/03 09:22:46;;;;;;;3.97;1.17;;;;;;;;;;4972734;28;20049;-86
2023/07/03 09:25:17;;;;;;;7.60;1.15;;;;;;;;;;4989891;28;20263;-86
2023/07/03 09:27:44;;;;;;;3.78;1.20;;;;;;;;;;4991960;28;20045;-86
2023/07/03 09:30:12;;;;;;;10.10;1.67;;;;;;;;;;4963838;28;20098;-85
2023/07/03 09:32:42;;;;;;;3.58;1.38;;;;;;;;;;4973103;28;20049;-86
2023/07/03 09:35:17;;;;;;;6.55;2.22;;;;;;;;;;4978346;28;20104;-85
2023/07/03 09:37:47;;;;;;;;;;;;;;;;;;4966155;28;20034;-85
2023/07/03 09:40:26;;;;;;;4.32;1.15;;;;;;;;;;5000348;28;19906;-86
2023/07/03 09:43:02;;;;;;;10.68;1.15;;;;;;;;;;4982726;28;20023;-85
2023/07/03 09:45:35;;;;;;;10.77;1.38;;;;;;;;;;4968319;28;20045;-86
2023/07/03 09:48:02;;;;;;;6.82;1.38;;;;;;;;;;4974100;28;20050;-85
2023/07/03 09:50:44;;;;;;;2.72;1.30;;;;;;;;;;4982786;28;20096;-86
2023/07/03 09:53:16;;;;;;;6.13;1.40;;;;;;;;;;4976261;28;20034;-87
2023/07/03 09:55:43;;;;;;;9.98;1.73;;;;;;;;;;4973960;28;20084;-86
2023/07/03 09:58:14;;;;;;;10.70;1.90;;;;;;;;;;4966110;28;20026;-86
2023/07/03 10:00:51;;;;;;;4.82;1.48;;;;;;;;;;4977888;28;20026;-86
2023/07/03 10:03:25;;;;;;;8.23;1.60;;;;;;;;;;4978348;28;20027;-86
2023/07/03 10:05:54;;;;;;;4.05;1.30;;;;;;;;;;4993084;28;20042;-86
2023/07/03 10:08:29;;;;;;;3.65;0.73;;;;;;;;;;4976752;28;20339;-87
2023/07/03 10:10:57;;;;;;;6.18;1.30;;;;;;;;;;4974245;28;20058;-87
2023/07/03 10:13:24;;;;;;;3.92;1.08;;;;;;;;;;4976742;28;20034;-87
2023/07/03 10:15:51;;;;;;;2.55;0.85;;;;;;;;;;4981265;28;20533;-86
2023/07/03 10:18:30;;;;;;;2.75;1.10;;;;;;;;;;4981350;28;20018;-86
2023/07/03 10:21:07;;;;;;;;;;;;;;;;;;;;;
2023/07/03 10:23:35;;;;;;;4.30;1.17;;;;;;;;;;4993450;28;20040;-86
2023/07/03 10:26:10;;;;;;;2.63;1.00;;;;;;;;;;4981688;28;20434;-86
2023/07/03 10:28:59;;;;;;;8.50;1.38;;;;;;;;;;4980436;28;20035;-86
2023/07/03 10:31:58;;;;;;;5.38;1.25;;;;;;;;;;4973799;28;20029;-84
2023/07/03 10:34:31;;;;;;;4.78;1.00;;;;;;;;;;4948620;28;20308;-85
2023/07/03 10:37:05;;;;;;;5.60;1.40;;;;;;;;;;4981906;28;20045;-85
2023/07/03 10:39:44;;;;;;;2.50;1.10;;;;;;;;;;4980871;28;20048;-84
2023/07/03 10:42:14;;;;;;;5.38;1.05;;;;;;;;;;4986719;28;20057;-86
2023/07/03 10:44:41;;;;;;;5.35;1.20;;;;;;;;;;4997418;28;20022;-86
2023/07/03 10:47:24;;;;;;;3.08;1.25;;;;;;;;;;4971696;28;20034;-86
2023/07/03 10:49:51;;;;;;;9.65;1.52;;;;;;;;;;4999234;28;20030;-86
2023/07/03 10:52:30;;;;;;;7.25;1.63;;;;;;;;;;4964615;28;20037;-87
2023/07/03 10:55:15;;;;;;;2.75;1.23;;;;;;;;;;4986867;28;20084;-87
2023/07/03 10:57:50;;;;;;;2.17;0.83;;;;;;;;;;4985950;28;20030;-87
2023/07/03 11:00:23;;;;;;;3.03;0.93;;;;;;;;;;4999005;28;20037;-86
2023/07/03 11:02:58;;;;;;;2.58;0.95;;;;;;;;;;4964402;28;20038;-87
2023/07/03 11:05:37;;;;;;;4.30;1.42;;;;;;;;;;4971645;28;20022;-86
2023/07/03 11:08:12;;;;;;;3.55;1.45;;;;;;;;;;4973816;28;20121;-86
2023/07/03 11:11:01;;;;;;;3.67;1.48;;;;;;;;;;4976500;28;20042;-86
2023/07/03 11:13:49;;;;;;;4.43;0.85;;;;;;;;;;4907613;29;20202;-86
2023/07/03 11:16:21;;;;;;;5.68;1.42;;;;;;;;;;4987816;28;20074;-86
2023/07/03 11:18:57;;;;;;;5.00;1.55;;;;;;;;;;4978243;28;20029;-85
2023/07/03 11:22:05;;;;;;;4.13;1.63;;;;;;;;;;4976267;28;20026;-85
2023/07/03 11:24:58;;;;;;;9.57;2.28;;;;;;;;;;4979430;28;20034;-86
2023/07/03 11:27:24;;;;;;;4.07;1.73;;;;;;;;;;5007557;28;20045;-86
2023/07/03 11:29:53;;;;;;;6.22;1.40;;;;;;;;;;4983909;28;20098;-86
2023/07/03 11:32:20;;;;;;;6.70;1.80;;;;;;;;;;4977376;28;20481;-86
2023/07/03 11:34:55;;;;;;;7.38;2.35;;;;;;;;;;4973606;28;20034;-86
2023/07/03 11:37:36;;;;;;;5.10;1.40;;;;;;;;;;4973226;28;20033;-86
2023/07/03 11:40:33;;;;;;;10.00;1.60;;;;;;;;;;4993624;28;20042;-86
2023/07/03 11:42:59;;;;;;;;;;;;;;;;;;4980992;28;20049;-86
2023/07/03 11:45:30;;;;;;;5.53;1.35;;;;;;;;;;4979636;28;20418;-86
2023/07/03 11:47:56;;;;;;;4.68;1.42;;;;;;;;;;4957326;28;20046;-85
2023/07/03 11:50:34;;;;;;;5.43;1.00;;;;;;;;;;4983816;28;20037;-86
2023/07/03 11:53:04;;;;;;;6.90;1.00;;;;;;;;;;4973124;28;20130;-86
2023/07/03 11:55:36;;;;;;;3.28;1.15;;;;;;;;;;4998466;28;20086;-87
2023/07/03 11:58:24;;;;;;;6.82;1.40;;;;;;;;;;4990760;28;20126;-86
2023/07/03 12:01:23;;;;;;;5.53;1.10;;;;;;;;;;4968333;28;20054;-86
2023/07/03 12:03:57;;;;;;;9.63;1.92;;;;;;;;;;4938684;28;20379;-85
2023/07/03 12:06:42;;;;;;;12.75;1.90;;;;;;;;;;4967215;28;20498;-86
2023/07/03 12:09:30;;;;;;;8.02;2.05;;;;;;;;;;4973474;28;20061;-86
2023/07/03 12:11:59;;;;;;;5.90;1.48;;;;;;;;;;4970973;28;20128;-86
2023/07/03 12:14:44;;;;;;;8.07;1.55;;;;;;;;;;4973603;28;20084;-86
2023/07/03 12:17:23;;;;;;;4.47;1.30;;;;;;;;;;4988659;28;20038;-85
2023/07/03 12:19:54;;;;;;;4.90;1.55;;;;;;;;;;4959920;28;20467;-86
2023/07/03 12:22:21;;;;;;;4.43;1.52;;;;;;;;;;4984462;28;20031;-85
2023/07/03 12:24:47;;;;;;;8.27;1.67;;;;;;;;;;4967682;28;20061;-85
2023/07/03 12:27:14;;;;;;;6.85;1.23;;;;;;;;;;4970082;28;20062;-86
2023/07/03 12:29:48;;;;;;;3.60;1.10;;;;;;;;;;4991106;28;20030;-87
2023/07/03 12:32:23;;;;;;;6.40;1.60;;;;;;;;;;4964996;28;20536;-86
2023/07/03 12:34:49;;;;;;;7.22;1.38;;;;;;;;;;4970637;28;20057;-86
2023/07/03 12:37:19;;;;;;;4.88;2.03;;;;;;;;;;4958952;28;20233;-86
2023/07/03 12:39:50;;;;;;;4.78;1.42;;;;;;;;;;4960285;28;20038;-86
2023/07/03 12:42:23;;;;;;;6.03;1.23;;;;;;;;;;4950974;28;20042;-85
2023/07/03 12:44:50;;;;;;;3.05;1.25;;;;;;;;;;4971605;28;20121;-86
2023/07/03 12:47:19;;;;;;;9.45;1.63;;;;;;;;;;4967430;28;20046;-85
2023/07/03 12:49:48;;;;;;;4.95;1.27;;;;;;;;;;4972650;28;20027;-86
2023/07/03 12:52:18;;;;;;;4.80;1.10;;;;;;;;;;4987377;28;20589;-87
2023/07/03 12:54:44;;;;;;;3.97;1.13;;;;;;;;;;4982377;28;20037;-86
2023/07/03 12:57:20;;;;;;;8.50;1.60;;;;;;;;;;4973054;28;20707;-87
2023/07/03 13:00:06;;;;;;;;;;;;;;;;;;;;;
2023/07/03 13:02:36;;;;;;;5.40;1.25;;;;;;;;;;4996203;28;19913;-86
2023/07/03 13:05:04;;;;;;;3.35;1.38;;;;;;;;;;4978896;28;20125;-86
2023/07/03 13:07:31;;;;;;;7.68;1.58;;;;;;;;;;4979814;28;20038;-86
2023/07/03 13:10:01;;;;;;;8.57;1.50;;;;;;;;;;4958662;28;20045;-85
2023/07/03 13:12:28;;;;;;;6.82;1.17;;;;;;;;;;4974775;28;20070;-85
2023/07/03 13:14:59;;;;;;;3.65;1.20;;;;;;;;;;4982468;28;20073;-86
2023/07/03 13:17:31;;;;;;;8.60;1.70;;;;;;;;;;4981158;28;20041;-85
2023/07/03 13:20:16;;;;;;;8.20;1.60;;;;;;;;;;4977151;28;20102;-86
2023/07/03 13:22:47;;;;;;;5.82;1.45;;;;;;;;;;4991112;28;20030;-86
2023/07/03 13:25:22;;;;;;;5.85;1.40;;;;;;;;;;4975526;28;20105;-86
2023/07/03 13:27:49;;;;;;;6.55;1.42;;;;;;;;;;4956670;28;20566;-86
2023/07/03 13:30:18;;;;;;;5.30;1.73;;;;;;;;;;4953645;28;20034;-86
2023/07/03 13:32:57;;;;;;;6.88;1.55;;;;;;;;;;4958241;28;20034;-86
2023/07/03 13:35:47;;;;;;;6.20;1.38;;;;;;;;;;4941321;28;20030;-86
2023/07/03 13:38:19;;;;;;;5.65;1.20;;;;;;;;;;4952159;28;20038;-85
2023/07/03 13:40:51;;;;;;;4.38;1.52;;;;;;;;;;4953768;28;20101;-85
2023/07/03 13:43:21;;;;;;;5.57;1.48;;;;;;;;;;4968944;28;20114;-85
2023/07/03 13:46:08;;;;;;;7.15;1.00;;;;;;;;;;4967287;28;20031;-86
2023/07/03 13:48:34;;;;;;;1.88;1.00;;;;;;;;;;4956720;28;20035;-85
2023/07/03 13:51:00;;;;;;;8.40;1.20;;;;;;;;;;4938586;28;20027;-85
2023/07/03 13:53:26;;;;;;;2.47;1.00;;;;;;;;;;4956474;28;20392;-86
2023/07/03 13:55:53;;;;;;;3.00;1.27;;;;;;;;;;4944396;28;20046;-85
2023/07/03 13:58:23;;;;;;;3.72;1.00;;;;;;;;;;4940049;28;20272;-86
2023/07/03 14:00:49;;;;;;;12.85;1.45;;;;;;;;;;4941925;28;20363;-87
2023/07/03 14:03:19;;;;;;;13.50;1.40;;;;;;;;;;4939787;28;20062;-86
2023/07/03 14:05:45;;;;;;;2.28;0.93;;;;;;;;;;4948202;28;20319;-86
2023/07/03 14:08:11;;;;;;;3.40;1.40;;;;;;;;;;4951376;28;20030;-85
2023/07/03 14:10:37;;;;;;;5.57;1.52;;;;;;;;;;4955458;28;20065;-86
2023/07/03 14:15:55;;;;;;;5.82;1.42;;;;;;;;;;4946134;28;20043;-86
2023/07/03 14:18:23;;;;;;;7.40;2.25;;;;;;;;;;4951686;28;20019;-86
2023/07/03 14:20:49;;;;;;;5.47;1.33;;;;;;;;;;4940847;28;20046;-85
2023/07/03 14:23:22;;;;;;;3.85;1.33;;;;;;;;;;4964945;28;20023;-85
2023/07/03 14:25:48;;;;;;;7.70;1.63;;;;;;;;;;4962868;28;20585;-86
2023/07/03 14:28:16;;;;;;;8.02;1.55;;;;;;;;;;4972451;28;20581;-85
2023/07/03 14:30:43;;;;;;;6.07;1.40;;;;;;;;;;4976016;28;20053;-85
2023/07/03 14:33:09;;;;;;;7.15;1.45;;;;;;;;;;4961684;28;21855;-86
2023/07/03 14:35:36;;;;;;;4.93;1.27;;;;;;;;;;4980262;28;20033;-85
2023/07/03 14:38:06;;;;;;;5.72;0.93;;;;;;;;;;4977971;28;20038;-86
2023/07/03 14:40:43;;;;;;;3.60;1.08;;;;;;;;;;4957812;28;20034;-85
2023/07/03 14:43:10;;;;;;;7.03;1.33;;;;;;;;;;4977891;28;20045;-86
2023/07/03 14:45:39;;;;;;;5.90;1.63;;;;;;;;;;4977612;28;20023;-85
2023/07/03 14:48:13;;;;;;;3.38;1.50;;;;;;;;;;4991321;28;20042;-86
2023/07/03 14:50:39;;;;;;;7.35;1.67;;;;;;;;;;4987535;28;20034;-86
2023/07/03 14:53:05;;;;;;;2.20;1.02;;;;;;;;;;4975380;28;20121;-86
2023/07/03 14:55:32;;;;;;;4.28;1.63;;;;;;;;;;4990676;28;20190;-85
2023/07/03 14:58:08;;;;;;;4.57;1.80;;;;;;;;;;4981165;28;20030;-85
2023/07/03 15:00:34;;;;;;;3.70;0.95;;;;;;;;;;4979041;28;20049;-85
2023/07/03 15:03:00;;;;;;;8.23;1.38;;;;;;;;;;4962178;28;20121;-86
2023/07/03 15:05:30;;;;;;;8.65;1.45;;;;;;;;;;4964288;28;20022;-86
2023/07/03 15:07:56;;;;;;;5.88;1.52;;;;;;;;;;4974140;28;20035;-86
2023/07/03 15:10:26;;;;;;;3.50;1.00;;;;;;;;;;4958739;28;20042;-86
2023/07/03 15:12:56;;;;;;;4.70;1.48;;;;;;;;;;4952097;28;20133;-86
2023/07/03 15:15:37;;;;;;;6.05;1.65;;;;;;;;;;4973669;28;20048;-86
2023/07/03 15:18:03;;;;;;;6.28;1.52;;;;;;;;;;4990196;28;20053;-87